sensor_id;sensor_type;location;lat;lon;timestamp;P1;durP1;ratioP1;P2;durP2;ratioP2
65033;SDS011;51601;51.356;12.458;2024-01-07T00:04:15;30.63;;;12.07;;
65033;SDS011;51601;51.356;12.458;2024-01-07T00:08:35;32.88;;;12.63;;
65033;SDS011;51601;51.356;12.458;2024-01-07T00:12:53;35.17;;;12.87;;
65033;SDS011;51601;51.356;12.458;2024-01-07T00:17:11;25.10;;;11.32;;
65033;SDS011;51601;51.356;12.458;2024-01-07T00:21:31;25.17;;;9.88;;
65033;SDS011;51601;51.356;12.458;2024-01-07T00:25:53;26.43;;;11.17;;
65033;SDS011;51601;51.356;12.458;2024-01-07T00:30:15;23.42;;;9.43;;
65033;SDS011;51601;51.356;12.458;2024-01-07T00:34:36;23.05;;;8.27;;
65033;SDS011;51601;51.356;12.458;2024-01-07T00:38:58;21.35;;;8.52;;
65033;SDS011;51601;51.356;12.458;2024-01-07T00:43:18;20.67;;;8.73;;
65033;SDS011;51601;51.356;12.458;2024-01-07T00:47:39;22.08;;;9.13;;
65033;SDS011;51601;51.356;12.458;2024-01-07T00:52:08;22.60;;;8.73;;
65033;SDS011;51601;51.356;12.458;2024-01-07T00:56:29;20.13;;;7.13;;
65033;SDS011;51601;51.356;12.458;2024-01-07T01:00:49;20.88;;;8.13;;
65033;SDS011;51601;51.356;12.458;2024-01-07T01:05:10;23.63;;;8.45;;
65033;SDS011;51601;51.356;12.458;2024-01-07T01:14:18;26.08;;;10.10;;
65033;SDS011;51601;51.356;12.458;2024-01-07T01:18:38;22.70;;;8.73;;
65033;SDS011;51601;51.356;12.458;2024-01-07T01:22:59;20.65;;;8.02;;
65033;SDS011;51601;51.356;12.458;2024-01-07T01:27:17;23.87;;;10.67;;
65033;SDS011;51601;51.356;12.458;2024-01-07T01:31:36;30.88;;;10.30;;
65033;SDS011;51601;51.356;12.458;2024-01-07T01:35:56;24.02;;;9.05;;
65033;SDS011;51601;51.356;12.458;2024-01-07T01:40:18;21.63;;;8.53;;
65033;SDS011;51601;51.356;12.458;2024-01-07T01:44:39;19.17;;;7.70;;
65033;SDS011;51601;51.356;12.458;2024-01-07T01:49:02;19.20;;;8.57;;
65033;SDS011;51601;51.356;12.458;2024-01-07T01:53:21;17.93;;;7.43;;
65033;SDS011;51601;51.356;12.458;2024-01-07T01:57:39;20.17;;;8.25;;
65033;SDS011;51601;51.356;12.458;2024-01-07T02:02:01;13.85;;;6.55;;
65033;SDS011;51601;51.356;12.458;2024-01-07T02:06:23;15.60;;;6.63;;
65033;SDS011;51601;51.356;12.458;2024-01-07T02:10:43;20.23;;;8.53;;
65033;SDS011;51601;51.356;12.458;2024-01-07T02:15:01;17.95;;;7.32;;
65033;SDS011;51601;51.356;12.458;2024-01-07T02:19:19;20.25;;;7.50;;
65033;SDS011;51601;51.356;12.458;2024-01-07T02:23:42;15.40;;;6.77;;
65033;SDS011;51601;51.356;12.458;2024-01-07T02:28:02;20.67;;;8.20;;
65033;SDS011;51601;51.356;12.458;2024-01-07T02:32:21;19.42;;;7.85;;
65033;SDS011;51601;51.356;12.458;2024-01-07T02:36:40;13.53;;;6.27;;
65033;SDS011;51601;51.356;12.458;2024-01-07T02:41:01;20.30;;;7.63;;
65033;SDS011;51601;51.356;12.458;2024-01-07T02:45:20;15.20;;;6.82;;
65033;SDS011;51601;51.356;12.458;2024-01-07T02:49:40;18.40;;;7.57;;
65033;SDS011;51601;51.356;12.458;2024-01-07T02:53:58;15.50;;;7.10;;
65033;SDS011;51601;51.356;12.458;2024-01-07T02:58:16;16.60;;;8.00;;
65033;SDS011;51601;51.356;12.458;2024-01-07T03:02:36;16.77;;;7.65;;
65033;SDS011;51601;51.356;12.458;2024-01-07T03:06:55;16.37;;;7.17;;
65033;SDS011;51601;51.356;12.458;2024-01-07T03:11:20;15.18;;;6.95;;
65033;SDS011;51601;51.356;12.458;2024-01-07T03:15:37;17.00;;;6.18;;
65033;SDS011;51601;51.356;12.458;2024-01-07T03:19:57;14.97;;;6.00;;
65033;SDS011;51601;51.356;12.458;2024-01-07T03:24:17;18.17;;;7.03;;
65033;SDS011;51601;51.356;12.458;2024-01-07T03:28:35;16.13;;;6.28;;
65033;SDS011;51601;51.356;12.458;2024-01-07T03:32:53;12.43;;;5.88;;
65033;SDS011;51601;51.356;12.458;2024-01-07T03:37:13;13.40;;;5.27;;
65033;SDS011;51601;51.356;12.458;2024-01-07T03:41:33;14.95;;;5.63;;
65033;SDS011;51601;51.356;12.458;2024-01-07T03:45:51;13.23;;;5.20;;
65033;SDS011;51601;51.356;12.458;2024-01-07T03:50:12;12.90;;;5.20;;
65033;SDS011;51601;51.356;12.458;2024-01-07T03:54:31;13.55;;;4.55;;
65033;SDS011;51601;51.356;12.458;2024-01-07T03:58:54;13.73;;;4.95;;
65033;SDS011;51601;51.356;12.458;2024-01-07T04:03:15;12.60;;;4.60;;
65033;SDS011;51601;51.356;12.458;2024-01-07T04:07:33;15.20;;;5.15;;
65033;SDS011;51601;51.356;12.458;2024-01-07T04:11:53;12.35;;;4.32;;
65033;SDS011;51601;51.356;12.458;2024-01-07T04:16:16;12.70;;;4.65;;
65033;SDS011;51601;51.356;12.458;2024-01-07T04:20:36;8.53;;;3.37;;
65033;SDS011;51601;51.356;12.458;2024-01-07T04:24:57;8.48;;;3.05;;
65033;SDS011;51601;51.356;12.458;2024-01-07T04:29:19;12.02;;;4.53;;
65033;SDS011;51601;51.356;12.458;2024-01-07T04:33:37;12.50;;;4.73;;
65033;SDS011;51601;51.356;12.458;2024-01-07T04:37:55;10.10;;;4.20;;
65033;SDS011;51601;51.356;12.458;2024-01-07T04:42:13;12.23;;;4.40;;
65033;SDS011;51601;51.356;12.458;2024-01-07T04:46:34;9.50;;;3.47;;
65033;SDS011;51601;51.356;12.458;2024-01-07T04:50:57;11.43;;;4.00;;
65033;SDS011;51601;51.356;12.458;2024-01-07T04:55:16;11.65;;;4.68;;
65033;SDS011;51601;51.356;12.458;2024-01-07T04:59:34;11.50;;;4.25;;
65033;SDS011;51601;51.356;12.458;2024-01-07T05:03:57;12.23;;;4.07;;
65033;SDS011;51601;51.356;12.458;2024-01-07T05:08:16;12.45;;;4.72;;
65033;SDS011;51601;51.356;12.458;2024-01-07T05:12:38;8.77;;;3.25;;
65033;SDS011;51601;51.356;12.458;2024-01-07T05:16:59;10.40;;;3.37;;
65033;SDS011;51601;51.356;12.458;2024-01-07T05:21:19;7.97;;;3.10;;
65033;SDS011;51601;51.356;12.458;2024-01-07T05:25:38;8.80;;;3.63;;
65033;SDS011;51601;51.356;12.458;2024-01-07T05:29:59;10.63;;;3.80;;
65033;SDS011;51601;51.356;12.458;2024-01-07T05:34:20;9.88;;;3.83;;
65033;SDS011;51601;51.356;12.458;2024-01-07T05:38:43;8.80;;;3.95;;
65033;SDS011;51601;51.356;12.458;2024-01-07T05:43:02;10.95;;;3.60;;
65033;SDS011;51601;51.356;12.458;2024-01-07T05:47:21;10.20;;;3.43;;
65033;SDS011;51601;51.356;12.458;2024-01-07T05:51:39;10.75;;;3.95;;
65033;SDS011;51601;51.356;12.458;2024-01-07T05:56:03;9.85;;;3.00;;
65033;SDS011;51601;51.356;12.458;2024-01-07T06:00:21;10.97;;;4.20;;
65033;SDS011;51601;51.356;12.458;2024-01-07T06:04:39;9.75;;;3.20;;
65033;SDS011;51601;51.356;12.458;2024-01-07T06:09:00;10.50;;;3.30;;
65033;SDS011;51601;51.356;12.458;2024-01-07T06:13:19;10.07;;;3.10;;
65033;SDS011;51601;51.356;12.458;2024-01-07T06:17:39;9.43;;;3.00;;
65033;SDS011;51601;51.356;12.458;2024-01-07T06:21:57;9.90;;;2.90;;
65033;SDS011;51601;51.356;12.458;2024-01-07T06:26:15;7.63;;;2.83;;
65033;SDS011;51601;51.356;12.458;2024-01-07T06:30:41;7.20;;;2.47;;
65033;SDS011;51601;51.356;12.458;2024-01-07T06:35:13;10.50;;;3.67;;
65033;SDS011;51601;51.356;12.458;2024-01-07T06:39:31;7.30;;;2.70;;
65033;SDS011;51601;51.356;12.458;2024-01-07T06:43:52;8.30;;;2.53;;
65033;SDS011;51601;51.356;12.458;2024-01-07T06:48:15;9.70;;;3.30;;
65033;SDS011;51601;51.356;12.458;2024-01-07T06:52:34;7.75;;;3.00;;
65033;SDS011;51601;51.356;12.458;2024-01-07T06:56:55;7.57;;;2.87;;
65033;SDS011;51601;51.356;12.458;2024-01-07T07:01:17;7.53;;;2.70;;
65033;SDS011;51601;51.356;12.458;2024-01-07T07:05:39;8.52;;;2.90;;
65033;SDS011;51601;51.356;12.458;2024-01-07T07:09:59;7.50;;;2.72;;
65033;SDS011;51601;51.356;12.458;2024-01-07T07:14:17;6.30;;;2.63;;
65033;SDS011;51601;51.356;12.458;2024-01-07T07:18:35;7.88;;;2.97;;
65033;SDS011;51601;51.356;12.458;2024-01-07T07:22:54;11.25;;;3.50;;
65033;SDS011;51601;51.356;12.458;2024-01-07T07:27:14;7.43;;;2.97;;
65033;SDS011;51601;51.356;12.458;2024-01-07T07:31:32;8.00;;;3.00;;
65033;SDS011;51601;51.356;12.458;2024-01-07T07:35:50;10.10;;;3.33;;
65033;SDS011;51601;51.356;12.458;2024-01-07T07:40:10;8.90;;;3.27;;
65033;SDS011;51601;51.356;12.458;2024-01-07T07:44:29;6.35;;;2.65;;
65033;SDS011;51601;51.356;12.458;2024-01-07T07:48:48;7.13;;;2.75;;
65033;SDS011;51601;51.356;12.458;2024-01-07T07:53:05;7.72;;;2.65;;
65033;SDS011;51601;51.356;12.458;2024-01-07T07:57:25;12.97;;;3.00;;
65033;SDS011;51601;51.356;12.458;2024-01-07T08:01:45;6.32;;;2.60;;
65033;SDS011;51601;51.356;12.458;2024-01-07T08:06:03;8.02;;;3.03;;
65033;SDS011;51601;51.356;12.458;2024-01-07T08:10:27;7.67;;;2.80;;
65033;SDS011;51601;51.356;12.458;2024-01-07T08:14:49;6.20;;;2.38;;
65033;SDS011;51601;51.356;12.458;2024-01-07T08:19:09;6.47;;;2.50;;
65033;SDS011;51601;51.356;12.458;2024-01-07T08:23:27;7.13;;;3.00;;
65033;SDS011;51601;51.356;12.458;2024-01-07T08:27:49;7.80;;;2.90;;
65033;SDS011;51601;51.356;12.458;2024-01-07T08:32:11;6.03;;;2.38;;
65033;SDS011;51601;51.356;12.458;2024-01-07T08:36:31;5.80;;;2.50;;
65033;SDS011;51601;51.356;12.458;2024-01-07T08:40:49;8.03;;;2.70;;
65033;SDS011;51601;51.356;12.458;2024-01-07T08:45:07;6.68;;;2.30;;
65033;SDS011;51601;51.356;12.458;2024-01-07T08:49:30;8.27;;;2.78;;
65033;SDS011;51601;51.356;12.458;2024-01-07T08:53:49;9.00;;;2.80;;
65033;SDS011;51601;51.356;12.458;2024-01-07T08:58:07;24.98;;;3.17;;
65033;SDS011;51601;51.356;12.458;2024-01-07T09:02:25;6.85;;;2.60;;
65033;SDS011;51601;51.356;12.458;2024-01-07T09:06:45;6.87;;;2.40;;
65033;SDS011;51601;51.356;12.458;2024-01-07T09:11:04;7.45;;;2.60;;
65033;SDS011;51601;51.356;12.458;2024-01-07T09:15:22;6.40;;;2.53;;
65033;SDS011;51601;51.356;12.458;2024-01-07T09:19:41;7.63;;;2.40;;
65033;SDS011;51601;51.356;12.458;2024-01-07T09:24:00;9.40;;;2.80;;
65033;SDS011;51601;51.356;12.458;2024-01-07T09:28:20;9.82;;;3.42;;
65033;SDS011;51601;51.356;12.458;2024-01-07T09:32:38;6.68;;;2.20;;
65033;SDS011;51601;51.356;12.458;2024-01-07T09:36:56;7.23;;;2.10;;
65033;SDS011;51601;51.356;12.458;2024-01-07T09:41:15;9.68;;;1.85;;
65033;SDS011;51601;51.356;12.458;2024-01-07T09:45:36;5.05;;;1.85;;
65033;SDS011;51601;51.356;12.458;2024-01-07T09:49:56;5.23;;;1.83;;
65033;SDS011;51601;51.356;12.458;2024-01-07T09:54:14;5.85;;;1.85;;
65033;SDS011;51601;51.356;12.458;2024-01-07T09:58:37;6.20;;;1.80;;
65033;SDS011;51601;51.356;12.458;2024-01-07T10:02:56;4.97;;;1.70;;
65033;SDS011;51601;51.356;12.458;2024-01-07T10:07:14;4.87;;;1.50;;
65033;SDS011;51601;51.356;12.458;2024-01-07T10:11:32;5.53;;;1.83;;
65033;SDS011;51601;51.356;12.458;2024-01-07T10:15:52;6.75;;;2.20;;
65033;SDS011;51601;51.356;12.458;2024-01-07T10:20:12;6.00;;;1.83;;
65033;SDS011;51601;51.356;12.458;2024-01-07T10:24:31;4.97;;;1.60;;
65033;SDS011;51601;51.356;12.458;2024-01-07T10:28:54;4.70;;;1.60;;
65033;SDS011;51601;51.356;12.458;2024-01-07T10:33:13;5.63;;;1.80;;
65033;SDS011;51601;51.356;12.458;2024-01-07T10:37:36;4.97;;;1.40;;
65033;SDS011;51601;51.356;12.458;2024-01-07T10:41:55;4.30;;;1.48;;
65033;SDS011;51601;51.356;12.458;2024-01-07T10:46:15;4.00;;;1.63;;
65033;SDS011;51601;51.356;12.458;2024-01-07T10:50:39;5.63;;;1.50;;
65033;SDS011;51601;51.356;12.458;2024-01-07T10:55:00;4.50;;;1.52;;
65033;SDS011;51601;51.356;12.458;2024-01-07T10:59:26;4.30;;;1.50;;
65033;SDS011;51601;51.356;12.458;2024-01-07T11:03:47;4.37;;;1.50;;
65033;SDS011;51601;51.356;12.458;2024-01-07T11:08:18;5.03;;;1.70;;
65033;SDS011;51601;51.356;12.458;2024-01-07T11:12:41;4.53;;;1.60;;
65033;SDS011;51601;51.356;12.458;2024-01-07T11:16:59;4.87;;;1.40;;
65033;SDS011;51601;51.356;12.458;2024-01-07T11:21:20;3.90;;;1.40;;
65033;SDS011;51601;51.356;12.458;2024-01-07T11:25:42;4.53;;;1.65;;
65033;SDS011;51601;51.356;12.458;2024-01-07T11:30:03;4.30;;;1.58;;
65033;SDS011;51601;51.356;12.458;2024-01-07T11:34:38;5.13;;;1.50;;
65033;SDS011;51601;51.356;12.458;2024-01-07T11:38:57;4.15;;;1.40;;
65033;SDS011;51601;51.356;12.458;2024-01-07T11:43:16;4.80;;;1.30;;
65033;SDS011;51601;51.356;12.458;2024-01-07T11:47:36;4.20;;;1.40;;
65033;SDS011;51601;51.356;12.458;2024-01-07T11:51:54;3.45;;;1.27;;
65033;SDS011;51601;51.356;12.458;2024-01-07T11:56:12;3.78;;;1.40;;
65033;SDS011;51601;51.356;12.458;2024-01-07T12:00:32;4.07;;;1.23;;
65033;SDS011;51601;51.356;12.458;2024-01-07T12:04:52;5.32;;;1.38;;
65033;SDS011;51601;51.356;12.458;2024-01-07T12:09:11;3.95;;;1.40;;
65033;SDS011;51601;51.356;12.458;2024-01-07T12:13:31;3.15;;;1.02;;
65033;SDS011;51601;51.356;12.458;2024-01-07T12:17:56;3.23;;;1.20;;
65033;SDS011;51601;51.356;12.458;2024-01-07T12:22:16;4.20;;;1.27;;
65033;SDS011;51601;51.356;12.458;2024-01-07T12:26:37;4.00;;;1.20;;
65033;SDS011;51601;51.356;12.458;2024-01-07T12:30:55;4.73;;;1.37;;
65033;SDS011;51601;51.356;12.458;2024-01-07T12:35:18;5.15;;;1.45;;
65033;SDS011;51601;51.356;12.458;2024-01-07T12:39:37;5.32;;;1.40;;
65033;SDS011;51601;51.356;12.458;2024-01-07T12:43:55;3.87;;;1.30;;
65033;SDS011;51601;51.356;12.458;2024-01-07T12:48:14;4.57;;;1.45;;
65033;SDS011;51601;51.356;12.458;2024-01-07T12:52:34;3.92;;;1.40;;
65033;SDS011;51601;51.356;12.458;2024-01-07T12:56:53;4.90;;;1.73;;
65033;SDS011;51601;51.356;12.458;2024-01-07T13:01:11;4.73;;;1.37;;
65033;SDS011;51601;51.356;12.458;2024-01-07T13:05:29;4.70;;;1.52;;
65033;SDS011;51601;51.356;12.458;2024-01-07T13:09:49;5.57;;;1.40;;
65033;SDS011;51601;51.356;12.458;2024-01-07T13:14:08;5.27;;;1.60;;
65033;SDS011;51601;51.356;12.458;2024-01-07T13:18:26;4.05;;;1.33;;
65033;SDS011;51601;51.356;12.458;2024-01-07T13:22:44;4.32;;;1.30;;
65033;SDS011;51601;51.356;12.458;2024-01-07T13:27:04;5.03;;;1.80;;
65033;SDS011;51601;51.356;12.458;2024-01-07T13:31:23;4.55;;;1.58;;
65033;SDS011;51601;51.356;12.458;2024-01-07T13:35:44;5.13;;;1.80;;
65033;SDS011;51601;51.356;12.458;2024-01-07T13:40:03;4.28;;;1.80;;
65033;SDS011;51601;51.356;12.458;2024-01-07T13:44:28;5.60;;;1.70;;
65033;SDS011;51601;51.356;12.458;2024-01-07T13:48:48;4.95;;;1.55;;
65033;SDS011;51601;51.356;12.458;2024-01-07T13:53:06;4.90;;;1.60;;
65033;SDS011;51601;51.356;12.458;2024-01-07T13:57:24;4.60;;;1.27;;
65033;SDS011;51601;51.356;12.458;2024-01-07T14:01:43;3.67;;;1.20;;
65033;SDS011;51601;51.356;12.458;2024-01-07T14:06:03;6.68;;;1.80;;
65033;SDS011;51601;51.356;12.458;2024-01-07T14:10:21;5.70;;;1.80;;
65033;SDS011;51601;51.356;12.458;2024-01-07T14:14:39;5.57;;;2.05;;
65033;SDS011;51601;51.356;12.458;2024-01-07T14:18:58;5.30;;;2.00;;
65033;SDS011;51601;51.356;12.458;2024-01-07T14:23:18;5.30;;;1.83;;
65033;SDS011;51601;51.356;12.458;2024-01-07T14:27:36;6.07;;;1.70;;
65033;SDS011;51601;51.356;12.458;2024-01-07T14:31:54;6.03;;;2.00;;
65033;SDS011;51601;51.356;12.458;2024-01-07T14:36:17;5.60;;;1.70;;
65033;SDS011;51601;51.356;12.458;2024-01-07T14:40:34;5.30;;;1.87;;
65033;SDS011;51601;51.356;12.458;2024-01-07T14:44:52;5.15;;;1.58;;
65033;SDS011;51601;51.356;12.458;2024-01-07T14:49:10;6.43;;;1.77;;
65033;SDS011;51601;51.356;12.458;2024-01-07T14:53:29;5.40;;;1.93;;
65033;SDS011;51601;51.356;12.458;2024-01-07T14:57:46;5.78;;;1.95;;
65033;SDS011;51601;51.356;12.458;2024-01-07T15:02:04;5.47;;;1.80;;
65033;SDS011;51601;51.356;12.458;2024-01-07T15:06:25;5.72;;;2.00;;
65033;SDS011;51601;51.356;12.458;2024-01-07T15:10:44;5.50;;;1.70;;
65033;SDS011;51601;51.356;12.458;2024-01-07T15:15:01;6.60;;;1.80;;
65033;SDS011;51601;51.356;12.458;2024-01-07T15:19:22;7.10;;;2.22;;
65033;SDS011;51601;51.356;12.458;2024-01-07T15:23:40;6.33;;;2.23;;
65033;SDS011;51601;51.356;12.458;2024-01-07T15:28:00;6.93;;;2.85;;
65033;SDS011;51601;51.356;12.458;2024-01-07T15:32:19;7.97;;;2.78;;
65033;SDS011;51601;51.356;12.458;2024-01-07T15:36:38;8.30;;;3.13;;
65033;SDS011;51601;51.356;12.458;2024-01-07T15:40:56;8.25;;;3.15;;
65033;SDS011;51601;51.356;12.458;2024-01-07T15:45:15;8.85;;;3.05;;
65033;SDS011;51601;51.356;12.458;2024-01-07T15:49:35;9.65;;;3.35;;
65033;SDS011;51601;51.356;12.458;2024-01-07T15:53:53;8.33;;;3.30;;
65033;SDS011;51601;51.356;12.458;2024-01-07T15:58:14;10.40;;;3.70;;
65033;SDS011;51601;51.356;12.458;2024-01-07T16:02:33;9.98;;;3.78;;
65033;SDS011;51601;51.356;12.458;2024-01-07T16:06:53;9.60;;;3.87;;
65033;SDS011;51601;51.356;12.458;2024-01-07T16:11:11;8.55;;;3.38;;
65033;SDS011;51601;51.356;12.458;2024-01-07T16:15:32;10.88;;;4.03;;
65033;SDS011;51601;51.356;12.458;2024-01-07T16:19:54;11.47;;;3.97;;
65033;SDS011;51601;51.356;12.458;2024-01-07T16:24:11;11.77;;;4.50;;
65033;SDS011;51601;51.356;12.458;2024-01-07T16:28:31;11.50;;;4.88;;
65033;SDS011;51601;51.356;12.458;2024-01-07T16:32:47;10.38;;;3.95;;
65033;SDS011;51601;51.356;12.458;2024-01-07T16:37:07;11.03;;;4.10;;
65033;SDS011;51601;51.356;12.458;2024-01-07T16:41:27;12.65;;;4.35;;
65033;SDS011;51601;51.356;12.458;2024-01-07T16:45:45;8.77;;;3.60;;
65033;SDS011;51601;51.356;12.458;2024-01-07T16:50:03;9.93;;;3.83;;
65033;SDS011;51601;51.356;12.458;2024-01-07T16:54:25;10.35;;;3.67;;
65033;SDS011;51601;51.356;12.458;2024-01-07T16:58:45;10.10;;;3.67;;
65033;SDS011;51601;51.356;12.458;2024-01-07T17:03:03;10.97;;;4.40;;
65033;SDS011;51601;51.356;12.458;2024-01-07T17:07:21;9.30;;;3.58;;
65033;SDS011;51601;51.356;12.458;2024-01-07T17:11:44;9.70;;;3.63;;
65033;SDS011;51601;51.356;12.458;2024-01-07T17:16:04;13.90;;;6.15;;
65033;SDS011;51601;51.356;12.458;2024-01-07T17:20:22;8.67;;;3.87;;
65033;SDS011;51601;51.356;12.458;2024-01-07T17:24:41;9.40;;;3.70;;
65033;SDS011;51601;51.356;12.458;2024-01-07T17:28:59;11.57;;;4.10;;
65033;SDS011;51601;51.356;12.458;2024-01-07T17:33:19;11.77;;;3.87;;
65033;SDS011;51601;51.356;12.458;2024-01-07T17:37:40;11.70;;;4.20;;
65033;SDS011;51601;51.356;12.458;2024-01-07T17:41:58;11.02;;;4.60;;
65033;SDS011;51601;51.356;12.458;2024-01-07T17:46:20;11.73;;;4.57;;
65033;SDS011;51601;51.356;12.458;2024-01-07T17:50:40;12.82;;;4.45;;
65033;SDS011;51601;51.356;12.458;2024-01-07T17:55:05;11.23;;;4.75;;
65033;SDS011;51601;51.356;12.458;2024-01-07T17:59:26;9.90;;;4.05;;
65033;SDS011;51601;51.356;12.458;2024-01-07T18:03:48;7.07;;;2.80;;
65033;SDS011;51601;51.356;12.458;2024-01-07T18:08:08;12.50;;;3.83;;
65033;SDS011;51601;51.356;12.458;2024-01-07T18:12:26;11.20;;;4.28;;
65033;SDS011;51601;51.356;12.458;2024-01-07T18:16:44;10.40;;;4.20;;
65033;SDS011;51601;51.356;12.458;2024-01-07T18:21:04;10.60;;;4.20;;
65033;SDS011;51601;51.356;12.458;2024-01-07T18:25:23;10.77;;;3.72;;
65033;SDS011;51601;51.356;12.458;2024-01-07T18:29:41;10.97;;;4.10;;
65033;SDS011;51601;51.356;12.458;2024-01-07T18:33:59;9.35;;;3.88;;
65033;SDS011;51601;51.356;12.458;2024-01-07T18:38:19;10.48;;;4.10;;
65033;SDS011;51601;51.356;12.458;2024-01-07T18:42:38;10.85;;;4.03;;
65033;SDS011;51601;51.356;12.458;2024-01-07T18:46:56;10.90;;;3.80;;
65033;SDS011;51601;51.356;12.458;2024-01-07T18:51:15;11.10;;;3.90;;
65033;SDS011;51601;51.356;12.458;2024-01-07T18:55:34;9.27;;;3.53;;
65033;SDS011;51601;51.356;12.458;2024-01-07T18:59:57;10.63;;;4.03;;
65033;SDS011;51601;51.356;12.458;2024-01-07T19:04:15;9.88;;;3.90;;
65033;SDS011;51601;51.356;12.458;2024-01-07T19:08:33;9.68;;;3.80;;
65033;SDS011;51601;51.356;12.458;2024-01-07T19:12:53;9.70;;;3.53;;
65033;SDS011;51601;51.356;12.458;2024-01-07T19:17:12;12.38;;;4.05;;
65033;SDS011;51601;51.356;12.458;2024-01-07T19:21:30;11.23;;;3.95;;
65033;SDS011;51601;51.356;12.458;2024-01-07T19:25:48;12.05;;;4.00;;
65033;SDS011;51601;51.356;12.458;2024-01-07T19:30:08;10.47;;;3.73;;
65033;SDS011;51601;51.356;12.458;2024-01-07T19:34:28;10.40;;;4.10;;
65033;SDS011;51601;51.356;12.458;2024-01-07T19:38:45;11.18;;;3.83;;
65033;SDS011;51601;51.356;12.458;2024-01-07T19:43:03;11.00;;;4.00;;
65033;SDS011;51601;51.356;12.458;2024-01-07T19:47:23;9.05;;;3.70;;
65033;SDS011;51601;51.356;12.458;2024-01-07T19:51:43;10.00;;;3.70;;
65033;SDS011;51601;51.356;12.458;2024-01-07T19:56:04;10.87;;;4.17;;
65033;SDS011;51601;51.356;12.458;2024-01-07T20:00:25;10.30;;;3.92;;
65033;SDS011;51601;51.356;12.458;2024-01-07T20:04:47;9.45;;;4.10;;
65033;SDS011;51601;51.356;12.458;2024-01-07T20:09:07;9.45;;;3.63;;
65033;SDS011;51601;51.356;12.458;2024-01-07T20:13:25;9.50;;;3.67;;
65033;SDS011;51601;51.356;12.458;2024-01-07T20:17:43;10.77;;;4.57;;
65033;SDS011;51601;51.356;12.458;2024-01-07T20:22:03;9.23;;;3.45;;
65033;SDS011;51601;51.356;12.458;2024-01-07T20:26:22;8.70;;;3.60;;
65033;SDS011;51601;51.356;12.458;2024-01-07T20:30:40;11.60;;;3.60;;
65033;SDS011;51601;51.356;12.458;2024-01-07T20:34:59;6.85;;;2.85;;
65033;SDS011;51601;51.356;12.458;2024-01-07T20:39:18;10.63;;;4.47;;
65033;SDS011;51601;51.356;12.458;2024-01-07T20:43:38;9.13;;;3.97;;
65033;SDS011;51601;51.356;12.458;2024-01-07T20:47:56;10.07;;;3.72;;
65033;SDS011;51601;51.356;12.458;2024-01-07T20:52:20;7.25;;;3.13;;
65033;SDS011;51601;51.356;12.458;2024-01-07T20:56:43;7.63;;;3.07;;
65033;SDS011;51601;51.356;12.458;2024-01-07T21:01:02;7.38;;;2.92;;
65033;SDS011;51601;51.356;12.458;2024-01-07T21:05:21;9.07;;;3.08;;
65033;SDS011;51601;51.356;12.458;2024-01-07T21:09:39;7.80;;;3.20;;
65033;SDS011;51601;51.356;12.458;2024-01-07T21:14:04;8.57;;;3.13;;
65033;SDS011;51601;51.356;12.458;2024-01-07T21:18:21;8.15;;;3.15;;
65033;SDS011;51601;51.356;12.458;2024-01-07T21:22:39;8.37;;;3.03;;
65033;SDS011;51601;51.356;12.458;2024-01-07T21:27:03;8.98;;;3.55;;
65033;SDS011;51601;51.356;12.458;2024-01-07T21:31:23;9.02;;;3.50;;
65033;SDS011;51601;51.356;12.458;2024-01-07T21:35:43;6.80;;;2.50;;
65033;SDS011;51601;51.356;12.458;2024-01-07T21:40:01;9.43;;;3.60;;
65033;SDS011;51601;51.356;12.458;2024-01-07T21:44:19;8.23;;;3.08;;
65033;SDS011;51601;51.356;12.458;2024-01-07T21:48:39;7.30;;;2.58;;
65033;SDS011;51601;51.356;12.458;2024-01-07T21:52:58;8.37;;;3.20;;
65033;SDS011;51601;51.356;12.458;2024-01-07T21:57:16;7.43;;;2.85;;
65033;SDS011;51601;51.356;12.458;2024-01-07T22:01:34;8.35;;;2.88;;
65033;SDS011;51601;51.356;12.458;2024-01-07T22:05:54;8.97;;;3.43;;
65033;SDS011;51601;51.356;12.458;2024-01-07T22:10:13;9.05;;;3.30;;
65033;SDS011;51601;51.356;12.458;2024-01-07T22:14:35;9.00;;;3.30;;
65033;SDS011;51601;51.356;12.458;2024-01-07T22:18:53;8.30;;;3.00;;
65033;SDS011;51601;51.356;12.458;2024-01-07T22:23:12;9.87;;;3.27;;
65033;SDS011;51601;51.356;12.458;2024-01-07T22:27:32;8.43;;;2.95;;
65033;SDS011;51601;51.356;12.458;2024-01-07T22:31:50;10.38;;;3.40;;
65033;SDS011;51601;51.356;12.458;2024-01-07T22:36:08;9.47;;;3.77;;
65033;SDS011;51601;51.356;12.458;2024-01-07T22:40:27;8.10;;;3.58;;
65033;SDS011;51601;51.356;12.458;2024-01-07T22:44:47;8.05;;;3.13;;
65033;SDS011;51601;51.356;12.458;2024-01-07T22:49:05;9.47;;;3.47;;
65033;SDS011;51601;51.356;12.458;2024-01-07T22:53:26;9.20;;;3.65;;
65033;SDS011;51601;51.356;12.458;2024-01-07T22:57:46;9.10;;;3.60;;
65033;SDS011;51601;51.356;12.458;2024-01-07T23:02:02;7.75;;;3.15;;
65033;SDS011;51601;51.356;12.458;2024-01-07T23:06:21;8.87;;;3.33;;
65033;SDS011;51601;51.356;12.458;2024-01-07T23:10:39;9.10;;;3.28;;
65033;SDS011;51601;51.356;12.458;2024-01-07T23:15:01;7.53;;;2.88;;
65033;SDS011;51601;51.356;12.458;2024-01-07T23:19:21;8.87;;;2.90;;
65033;SDS011;51601;51.356;12.458;2024-01-07T23:23:39;9.27;;;3.28;;
65033;SDS011;51601;51.356;12.458;2024-01-07T23:27:57;8.77;;;3.55;;
65033;SDS011;51601;51.356;12.458;2024-01-07T23:32:16;8.80;;;2.77;;
65033;SDS011;51601;51.356;12.458;2024-01-07T23:36:36;7.47;;;3.05;;
65033;SDS011;51601;51.356;12.458;2024-01-07T23:40:54;7.30;;;2.83;;
65033;SDS011;51601;51.356;12.458;2024-01-07T23:45:12;8.65;;;3.03;;
65033;SDS011;51601;51.356;12.458;2024-01-07T23:49:32;6.70;;;2.47;;
65033;SDS011;51601;51.356;12.458;2024-01-07T23:53:51;9.48;;;3.00;;
65033;SDS011;51601;51.356;12.458;2024-01-07T23:58:09;8.38;;;2.58;;
